Terminal Aerodrome Forecast
Issued by NWS

Home | Current Version | Previous Version | Graphics & Text | Print | Product List | Glossary On
Versions: 1 2 3 4 5 6 7 8 9 10 11 12 13 14 15 16 17 18
000
FTUS42 KMHX 232328
TAFPGV
TAF
KPGV 232328Z 2400/2424 17010G15KT P6SM SHRA VCSH SCT005 BKN010
      OVC035
     FM240300 17010KT 3SM SHRA OVC020
      TEMPO 2403/2407 2SM TS OVC007CB
     FM240900 18010KT 3SM SHRA SCT007 OVC015
     FM241000 19010KT 3SM SHRA SCT007 BKN040
     FM241200 19010KT 6SM -SHRA BKN050
     FM241800 21010G20KT P6SM SCT250
      AMD LTD TO CLD VIS AND WIND=

USA.gov is the U.S. government's official web portal to all federal, state and local government web resources and services.